Time;durP1;ratioP1;P1;durP2;ratioP2;P2;SDS_P1;SDS_P2;PMS_P1;PMS_P2;Temp;Humidity;BMP_temperature;BMP_pressure;BME280_temperature;BME280_humidity;BME280_pressure;Samples;Min_cycle;Max_cycle;Signal;HPM_P1;HPM_P2
2022/03/14 00:00:22;;;;;;;17.77;13.93;;;8.50;99.90;;;;;;5056039;28;20052;-71
2022/03/14 00:02:48;;;;;;;16.00;13.52;;;8.50;99.90;;;;;;5067722;28;20044;-71
2022/03/14 00:05:15;;;;;;;14.80;12.23;;;8.60;99.90;;;;;;5050411;28;20040;-71
2022/03/14 00:07:50;;;;;;;15.68;13.07;;;8.60;99.90;;;;;;5057620;28;20553;-71
2022/03/14 00:10:17;;;;;;;14.05;12.00;;;8.60;99.90;;;;;;5051898;28;20037;-71
2022/03/14 00:12:44;;;;;;;13.70;12.13;;;8.50;99.90;;;;;;5052780;28;20054;-71
2022/03/14 00:15:14;;;;;;;14.48;11.63;;;8.50;99.90;;;;;;5052040;28;20035;-71
2022/03/14 00:17:42;;;;;;;12.70;11.25;;;8.50;99.90;;;;;;5053053;28;20036;-71
2022/03/14 00:20:11;;;;;;;12.82;10.77;;;8.60;99.90;;;;;;5055922;28;20071;-72
2022/03/14 00:22:37;;;;;;;14.18;11.38;;;8.60;99.90;;;;;;5051201;28;20153;-72
2022/03/14 00:25:07;;;;;;;13.43;11.55;;;8.70;99.90;;;;;;5050944;28;20049;-69
2022/03/14 00:27:35;;;;;;;11.63;10.13;;;8.70;99.90;;;;;;5071517;28;20050;-71
2022/03/14 00:30:05;;;;;;;11.10;9.95;;;8.70;99.90;;;;;;5056984;28;20036;-70
2022/03/14 00:32:30;;;;;;;9.75;8.75;;;8.70;99.90;;;;;;5055082;28;20047;-72
2022/03/14 00:34:57;;;;;;;12.35;8.10;;;8.80;99.90;;;;;;5056342;28;20044;-71
2022/03/14 00:37:22;;;;;;;10.45;7.38;;;8.90;99.90;;;;;;5039004;28;20089;-71
2022/03/14 00:39:48;;;;;;;10.48;8.43;;;8.90;99.90;;;;;;5052992;28;20036;-71
2022/03/14 00:42:15;;;;;;;8.57;7.60;;;8.90;99.90;;;;;;5038602;28;20045;-71
2022/03/14 00:44:42;;;;;;;10.60;7.47;;;9.00;99.90;;;;;;5039444;28;20032;-71
2022/03/14 00:47:08;;;;;;;8.23;7.32;;;9.00;99.90;;;;;;5071222;28;20043;-71
2022/03/14 00:49:34;;;;;;;7.43;6.72;;;9.10;99.90;;;;;;5051308;28;20033;-71
2022/03/14 00:52:00;;;;;;;8.90;6.68;;;9.10;99.90;;;;;;5042128;28;20041;-70
2022/03/14 00:54:26;;;;;;;6.53;5.90;;;9.20;99.90;;;;;;5048148;28;20032;-71
2022/03/14 00:56:51;;;;;;;5.70;5.20;;;9.20;99.90;;;;;;5052354;28;20049;-70
2022/03/14 00:59:17;;;;;;;7.05;5.43;;;9.30;99.90;;;;;;5054007;28;20047;-71
2022/03/14 01:01:43;;;;;;;6.30;5.70;;;9.30;99.90;;;;;;5054243;28;20063;-69
2022/03/14 01:04:09;;;;;;;6.38;5.78;;;9.30;99.90;;;;;;5057715;28;20044;-70
2022/03/14 01:06:36;;;;;;;6.18;5.57;;;9.30;99.90;;;;;;5044609;28;20036;-70
2022/03/14 01:09:03;;;;;;;6.75;6.05;;;9.40;99.90;;;;;;5042458;28;20045;-70
2022/03/14 01:11:29;;;;;;;8.57;5.80;;;9.30;99.90;;;;;;5061547;28;20040;-71
2022/03/14 01:13:55;;;;;;;7.78;5.47;;;9.40;99.90;;;;;;5028564;28;20409;-71
2022/03/14 01:16:21;;;;;;;6.53;5.50;;;9.30;99.90;;;;;;5053098;28;20046;-70
2022/03/14 01:18:46;;;;;;;6.60;5.90;;;9.30;99.90;;;;;;5041646;28;20124;-70
2022/03/14 01:21:12;;;;;;;5.82;5.07;;;9.40;99.90;;;;;;5046292;28;20040;-69
2022/03/14 01:23:37;;;;;;;5.43;4.93;;;9.40;99.90;;;;;;5059394;28;20037;-73
2022/03/14 01:26:04;;;;;;;5.47;4.82;;;9.40;99.90;;;;;;5075739;28;20037;-70
2022/03/14 01:28:29;;;;;;;8.43;5.68;;;9.40;99.90;;;;;;5079689;28;20480;-70
2022/03/14 01:30:57;;;;;;;10.73;5.82;;;9.40;99.90;;;;;;5049405;28;20081;-71
2022/03/14 01:33:23;;;;;;;5.68;4.95;;;9.40;99.90;;;;;;5055772;28;20051;-71
2022/03/14 01:35:48;;;;;;;5.95;5.15;;;9.40;99.90;;;;;;5072958;28;20045;-71
2022/03/14 01:38:14;;;;;;;7.22;5.40;;;9.40;99.90;;;;;;5071765;28;20040;-71
2022/03/14 01:40:39;;;;;;;5.65;5.13;;;9.30;99.90;;;;;;5051303;28;20484;-71
2022/03/14 01:43:05;;;;;;;8.68;4.70;;;9.30;99.90;;;;;;5070463;28;20035;-71
2022/03/14 01:45:31;;;;;;;7.60;5.20;;;9.30;99.90;;;;;;5051416;28;20271;-71
2022/03/14 01:47:56;;;;;;;7.28;4.68;;;9.30;99.90;;;;;;5054295;28;20049;-71
2022/03/14 01:50:22;;;;;;;5.38;4.57;;;9.20;99.90;;;;;;5051091;28;20131;-71
2022/03/14 01:52:48;;;;;;;5.15;4.40;;;9.30;99.90;;;;;;5054961;28;20404;-71
2022/03/14 01:55:14;;;;;;;5.28;4.57;;;9.30;99.90;;;;;;5052251;28;20045;-71
2022/03/14 01:57:40;;;;;;;8.60;5.00;;;9.30;99.90;;;;;;5050618;28;20049;-71
2022/03/14 02:00:09;;;;;;;4.88;4.40;;;9.30;99.90;;;;;;5050704;28;20033;-71
2022/03/14 02:02:35;;;;;;;4.78;4.30;;;9.30;99.90;;;;;;5050697;28;20435;-71
2022/03/14 02:05:00;;;;;;;6.78;4.90;;;9.30;99.90;;;;;;5070599;28;20036;-71
2022/03/14 02:07:26;;;;;;;5.65;4.50;;;9.30;99.90;;;;;;5068538;28;20040;-71
2022/03/14 02:09:52;;;;;;;5.93;4.78;;;9.30;99.90;;;;;;5049557;28;20044;-71
2022/03/14 02:12:18;;;;;;;5.30;4.68;;;9.30;99.90;;;;;;5053374;28;20119;-71
2022/03/14 02:14:44;;;;;;;6.78;4.63;;;9.30;99.90;;;;;;5071269;28;20203;-71
2022/03/14 02:17:13;;;;;;;5.15;4.65;;;9.40;99.90;;;;;;5050096;28;20036;-71
2022/03/14 02:19:40;;;;;;;4.75;4.35;;;9.40;99.90;;;;;;5050216;28;20037;-71
2022/03/14 02:22:12;;;;;;;4.95;4.50;;;9.40;99.90;;;;;;5051848;28;20160;-71
2022/03/14 02:24:39;;;;;;;4.70;4.28;;;9.30;99.90;;;;;;5049908;28;20070;-71
2022/03/14 02:27:05;;;;;;;5.00;4.50;;;9.30;99.90;;;;;;5052004;28;20110;-71
2022/03/14 02:29:31;;;;;;;5.05;4.05;;;9.30;99.90;;;;;;5071692;28;20389;-71
2022/03/14 02:31:56;;;;;;;5.47;4.47;;;9.30;99.90;;;;;;5053333;28;20036;-71
2022/03/14 02:34:22;;;;;;;4.68;4.22;;;9.30;99.90;;;;;;5054266;28;20730;-71
2022/03/14 02:36:48;;;;;;;6.90;4.20;;;9.30;99.90;;;;;;5040402;28;20041;-70
2022/03/14 02:39:14;;;;;;;4.57;4.18;;;9.40;99.90;;;;;;5037633;28;20446;-70
2022/03/14 02:41:40;;;;;;;5.53;4.18;;;9.40;99.90;;;;;;5060096;28;20514;-71
2022/03/14 02:44:08;;;;;;;4.47;4.07;;;9.50;99.90;;;;;;5070286;28;20032;-71
2022/03/14 02:46:38;;;;;;;4.38;3.80;;;9.50;99.90;;;;;;5055302;28;20086;-72
2022/03/14 02:49:08;;;;;;;4.75;4.20;;;9.50;99.90;;;;;;5037734;28;20059;-70
2022/03/14 02:51:35;;;;;;;5.65;4.40;;;9.50;99.90;;;;;;5026135;28;20036;-70
2022/03/14 02:54:05;;;;;;;4.47;4.07;;;9.50;99.90;;;;;;5072752;28;20059;-73
2022/03/14 02:56:35;;;;;;;4.00;3.60;;;9.50;99.90;;;;;;5042926;28;20028;-70
2022/03/14 02:59:02;;;;;;;5.85;3.78;;;9.50;99.90;;;;;;5073593;28;20048;-71
2022/03/14 03:01:28;;;;;;;6.82;4.35;;;9.50;99.90;;;;;;5042735;28;20035;-70
2022/03/14 03:03:53;;;;;;;5.03;4.20;;;9.50;99.90;;;;;;5037774;28;20033;-71
2022/03/14 03:06:23;;;;;;;4.70;4.20;;;9.40;99.90;;;;;;5062710;28;20033;-72
2022/03/14 03:08:50;;;;;;;5.32;4.10;;;9.40;99.90;;;;;;5027073;28;20033;-70
2022/03/14 03:11:15;;;;;;;4.40;4.00;;;9.40;99.90;;;;;;5055170;28;20040;-71
2022/03/14 03:13:43;;;;;;;4.57;4.00;;;9.40;99.90;;;;;;5046446;28;20040;-70
2022/03/14 03:16:10;;;;;;;4.95;3.85;;;9.40;99.90;;;;;;5040804;28;20033;-73
2022/03/14 03:18:36;;;;;;;5.95;3.80;;;9.30;99.90;;;;;;5068729;28;20048;-71
2022/03/14 03:21:02;;;;;;;4.60;4.20;;;9.40;99.90;;;;;;5040501;28;20040;-71
2022/03/14 03:23:29;;;;;;;4.88;3.88;;;9.30;99.90;;;;;;5054409;28;20548;-71
2022/03/14 03:25:56;;;;;;;4.20;3.80;;;9.30;99.90;;;;;;5056457;28;20519;-70
2022/03/14 03:28:22;;;;;;;4.20;3.80;;;9.30;99.90;;;;;;5053825;28;20052;-70
2022/03/14 03:30:48;;;;;;;3.80;3.50;;;9.30;99.90;;;;;;5056046;28;20032;-70
2022/03/14 03:33:15;;;;;;;4.13;3.72;;;9.40;99.90;;;;;;5041595;28;20036;-71
2022/03/14 03:35:40;;;;;;;5.63;3.40;;;9.40;99.90;;;;;;5060563;28;20098;-70
2022/03/14 03:38:06;;;;;;;4.10;3.70;;;9.40;99.90;;;;;;5075509;28;20045;-71
2022/03/14 03:40:32;;;;;;;4.10;3.63;;;9.40;99.90;;;;;;5057888;28;20036;-71
2022/03/14 03:42:57;;;;;;;3.70;3.40;;;9.40;99.90;;;;;;5058783;28;20054;-71
2022/03/14 03:45:24;;;;;;;4.50;3.97;;;9.40;99.90;;;;;;5076019;28;20033;-71
2022/03/14 03:47:49;;;;;;;4.68;3.70;;;9.40;99.90;;;;;;5053907;28;20461;-71
2022/03/14 03:50:16;;;;;;;4.97;3.97;;;9.40;99.90;;;;;;5055477;28;20123;-72
2022/03/14 03:52:42;;;;;;;4.20;3.80;;;9.40;99.90;;;;;;5074582;28;20056;-71
2022/03/14 03:55:09;;;;;;;4.55;3.88;;;9.40;99.90;;;;;;5042590;28;20128;-71
2022/03/14 03:57:35;;;;;;;5.70;3.70;;;9.40;99.90;;;;;;5054660;28;20056;-72
2022/03/14 04:00:05;;;;;;;5.03;3.42;;;9.40;99.90;;;;;;5050067;28;20040;-69
2022/03/14 04:02:36;;;;;;;3.75;3.45;;;9.30;99.90;;;;;;5050819;28;20028;-70
2022/03/14 04:05:02;;;;;;;4.70;3.85;;;9.30;99.90;;;;;;5054382;28;20044;-70
2022/03/14 04:07:29;;;;;;;3.47;3.17;;;9.30;99.90;;;;;;5056699;28;20032;-71
2022/03/14 04:09:56;;;;;;;4.15;3.20;;;9.30;99.90;;;;;;5057653;28;20043;-71
2022/03/14 04:12:26;;;;;;;4.20;3.30;;;9.30;99.90;;;;;;5076338;28;20044;-68
2022/03/14 04:14:54;;;;;;;3.55;3.25;;;9.30;99.90;;;;;;5054356;28;20125;-71
2022/03/14 04:17:19;;;;;;;4.40;3.47;;;9.30;99.90;;;;;;5055990;28;20033;-71
2022/03/14 04:19:45;;;;;;;4.13;3.72;;;9.40;99.90;;;;;;5038306;28;20036;-72
2022/03/14 04:22:13;;;;;;;3.42;3.13;;;9.30;99.90;;;;;;5057559;28;20045;-70
2022/03/14 04:24:39;;;;;;;3.78;3.17;;;9.40;99.90;;;;;;5052678;28;20150;-71
2022/03/14 04:27:04;;;;;;;3.90;3.50;;;9.40;99.90;;;;;;5052431;28;20036;-71
2022/03/14 04:29:30;;;;;;;4.30;3.10;;;9.40;99.90;;;;;;5038883;28;20128;-72
2022/03/14 04:31:56;;;;;;;4.65;3.63;;;9.40;99.90;;;;;;5050206;28;20084;-72
2022/03/14 04:34:21;;;;;;;4.32;3.38;;;9.40;99.90;;;;;;5071343;28;20075;-72
2022/03/14 04:36:50;;;;;;;3.80;3.50;;;9.40;99.90;;;;;;5038066;28;20041;-72
2022/03/14 04:39:17;;;;;;;4.57;3.88;;;9.50;99.90;;;;;;5072073;28;20044;-72
2022/03/14 04:41:43;;;;;;;4.10;3.70;;;9.40;99.90;;;;;;5056508;28;20044;-70
2022/03/14 04:44:09;;;;;;;4.53;3.80;;;9.40;99.90;;;;;;5054751;28;20040;-70
2022/03/14 04:46:35;;;;;;;4.05;3.72;;;9.40;99.90;;;;;;5073098;28;20052;-69
2022/03/14 04:49:04;;;;;;;4.22;3.72;;;9.40;99.90;;;;;;5047441;28;20484;-72
2022/03/14 04:51:30;;;;;;;8.13;3.90;;;9.40;99.90;;;;;;5056765;28;20401;-73
2022/03/14 04:53:56;;;;;;;4.13;3.83;;;9.40;99.90;;;;;;5050959;28;20040;-71
2022/03/14 04:56:21;;;;;;;4.20;3.80;;;9.40;99.90;;;;;;5070454;28;20048;-71
2022/03/14 04:58:47;;;;;;;4.50;4.10;;;9.40;99.90;;;;;;5054277;28;20043;-71
2022/03/14 05:01:13;;;;;;;4.53;4.10;;;9.40;99.90;;;;;;5052647;28;20056;-71
2022/03/14 05:03:38;;;;;;;4.55;4.15;;;9.40;99.90;;;;;;5072002;28;20079;-71
2022/03/14 05:06:04;;;;;;;4.78;4.05;;;9.50;99.90;;;;;;5049411;28;20040;-71
2022/03/14 05:08:30;;;;;;;5.07;3.80;;;9.40;99.90;;;;;;5057788;28;20039;-71
2022/03/14 05:10:57;;;;;;;4.78;4.28;;;9.40;99.90;;;;;;5056184;28;20036;-71
2022/03/14 05:13:23;;;;;;;5.40;4.70;;;9.40;99.90;;;;;;5039937;28;20040;-71
2022/03/14 05:15:49;;;;;;;5.45;4.78;;;9.50;99.90;;;;;;5056428;28;20031;-71
2022/03/14 05:18:15;;;;;;;4.57;4.18;;;9.50;99.90;;;;;;5040376;28;20400;-70
2022/03/14 05:20:41;;;;;;;5.03;4.50;;;9.40;99.90;;;;;;5047185;28;20040;-69
2022/03/14 05:23:07;;;;;;;4.72;4.20;;;9.40;99.90;;;;;;5053197;28;20437;-71
2022/03/14 05:25:33;;;;;;;4.82;4.43;;;9.40;99.90;;;;;;5055629;28;20044;-71
2022/03/14 05:27:59;;;;;;;5.82;4.40;;;9.40;99.90;;;;;;5063070;28;20051;-71
2022/03/14 05:30:25;;;;;;;6.95;4.60;;;9.40;99.90;;;;;;5032115;28;20040;-71
2022/03/14 05:32:51;;;;;;;5.13;4.70;;;9.40;99.90;;;;;;5046491;28;20137;-71
2022/03/14 05:35:18;;;;;;;5.70;4.40;;;9.30;99.90;;;;;;5053271;28;20124;-71
2022/03/14 05:37:46;;;;;;;5.43;4.70;;;9.40;99.90;;;;;;5053766;28;20040;-71
2022/03/14 05:40:12;;;;;;;5.70;4.40;;;9.30;99.90;;;;;;5053960;28;20071;-70
2022/03/14 05:42:38;;;;;;;5.10;4.60;;;9.30;99.90;;;;;;5052107;28;20040;-71
2022/03/14 05:45:04;;;;;;;5.03;4.60;;;9.20;99.90;;;;;;5055179;28;20047;-71
2022/03/14 05:47:31;;;;;;;6.32;5.28;;;9.20;99.90;;;;;;5055643;28;20060;-71
2022/03/14 05:49:56;;;;;;;5.32;4.82;;;9.20;99.90;;;;;;5038912;28;20032;-71
2022/03/14 05:52:22;;;;;;;5.75;5.05;;;9.20;99.90;;;;;;5054766;28;20122;-68
2022/03/14 05:54:48;;;;;;;5.35;4.85;;;9.20;99.90;;;;;;5055205;28;20037;-71
2022/03/14 05:57:14;;;;;;;5.47;4.97;;;9.10;99.90;;;;;;5051668;28;20073;-71
2022/03/14 05:59:39;;;;;;;5.03;4.60;;;9.10;99.90;;;;;;5052244;28;20040;-69
2022/03/14 06:02:05;;;;;;;5.18;4.78;;;9.10;99.90;;;;;;5036053;28;20043;-70
2022/03/14 06:04:31;;;;;;;5.75;5.15;;;9.10;99.90;;;;;;5037252;28;20047;-72
2022/03/14 06:06:57;;;;;;;6.40;5.80;;;9.10;99.90;;;;;;5038880;28;20043;-70
2022/03/14 06:09:25;;;;;;;6.40;5.20;;;9.10;99.90;;;;;;5055429;28;20047;-70
2022/03/14 06:11:52;;;;;;;5.68;5.15;;;9.00;99.90;;;;;;5037149;28;20040;-71
2022/03/14 06:14:18;;;;;;;6.15;5.05;;;9.10;99.90;;;;;;5054470;28;20037;-69
2022/03/14 06:16:44;;;;;;;6.35;5.75;;;9.10;99.90;;;;;;5043165;28;20056;-69
2022/03/14 06:19:09;;;;;;;6.32;5.28;;;9.00;99.90;;;;;;5057536;28;20157;-70
2022/03/14 06:21:35;;;;;;;5.70;5.20;;;9.00;99.90;;;;;;5055177;28;20036;-70
2022/03/14 06:24:05;;;;;;;6.13;5.35;;;9.00;99.90;;;;;;5037077;28;20044;-72
2022/03/14 06:26:32;;;;;;;6.03;5.43;;;9.00;99.90;;;;;;5051684;28;20047;-73
2022/03/14 06:28:58;;;;;;;6.50;5.90;;;9.00;99.90;;;;;;5064776;28;20033;-70
2022/03/14 06:31:23;;;;;;;8.30;5.90;;;9.00;99.90;;;;;;5056773;28;20055;-70
2022/03/14 06:33:49;;;;;;;5.65;5.15;;;9.00;99.90;;;;;;5033868;28;20044;-70
2022/03/14 06:36:15;;;;;;;6.28;5.45;;;9.00;99.90;;;;;;5053644;28;20042;-72
2022/03/14 06:38:40;;;;;;;6.53;5.80;;;9.00;99.90;;;;;;5034597;28;20032;-71
2022/03/14 06:41:07;;;;;;;6.30;5.63;;;9.00;99.90;;;;;;5066302;28;20161;-71
2022/03/14 06:43:35;;;;;;;6.97;6.32;;;9.00;99.90;;;;;;5068097;28;20041;-71
2022/03/14 06:46:00;;;;;;;6.60;6.00;;;9.00;99.90;;;;;;5046862;28;20028;-71
2022/03/14 06:48:26;;;;;;;6.65;5.95;;;9.00;99.90;;;;;;5064175;28;20051;-72
2022/03/14 06:50:51;;;;;;;6.10;5.50;;;9.00;99.90;;;;;;5052536;28;20052;-71
2022/03/14 06:53:17;;;;;;;6.53;5.90;;;9.10;99.90;;;;;;5050793;28;20059;-71
2022/03/14 06:55:43;;;;;;;8.43;5.88;;;9.10;99.90;;;;;;5050645;28;20116;-71
2022/03/14 06:58:09;;;;;;;6.90;6.20;;;9.10;99.90;;;;;;5050276;28;20032;-71
2022/03/14 07:00:34;;;;;;;6.80;6.10;;;9.10;99.90;;;;;;5048247;28;20037;-71
2022/03/14 07:03:00;;;;;;;7.47;6.30;;;9.10;99.90;;;;;;5049299;28;20037;-71
2022/03/14 07:05:26;;;;;;;7.07;5.97;;;9.10;99.90;;;;;;5045806;28;20119;-71
2022/03/14 07:07:53;;;;;;;8.27;6.47;;;9.10;99.90;;;;;;5061401;28;20071;-71
2022/03/14 07:10:19;;;;;;;7.30;6.60;;;9.10;99.90;;;;;;5046693;28;20051;-71
2022/03/14 07:12:48;;;;;;;7.35;6.65;;;9.10;99.90;;;;;;5047621;28;20144;-71
2022/03/14 07:15:20;;;;;;;8.48;6.53;;;9.10;99.90;;;;;;5049835;28;20055;-70
2022/03/14 07:17:46;;;;;;;7.70;6.90;;;9.10;99.90;;;;;;5052344;28;20055;-71
2022/03/14 07:20:13;;;;;;;6.88;6.18;;;9.10;99.90;;;;;;5067550;28;20039;-69
2022/03/14 07:22:53;;;;;;;7.85;7.03;;;9.20;99.90;;;;;;5048779;28;20040;-71
2022/03/14 07:25:21;;;;;;;9.18;6.57;;;9.20;99.90;;;;;;5047522;28;20060;-69
2022/03/14 07:27:46;;;;;;;8.57;7.78;;;9.20;99.90;;;;;;5049956;28;20045;-71
2022/03/14 07:30:14;;;;;;;7.88;7.15;;;9.20;99.90;;;;;;5065136;28;20047;-70
2022/03/14 07:32:39;;;;;;;7.88;7.10;;;9.20;99.90;;;;;;5053994;28;20041;-71
2022/03/14 07:35:05;;;;;;;8.45;7.32;;;9.20;99.90;;;;;;5070134;28;20044;-71
2022/03/14 07:37:31;;;;;;;8.02;7.25;;;9.30;99.90;;;;;;5046321;28;20052;-71
2022/03/14 07:39:57;;;;;;;9.65;7.68;;;9.30;99.90;;;;;;5046326;28;20032;-71
2022/03/14 07:42:22;;;;;;;9.60;7.28;;;9.30;99.90;;;;;;5064451;28;20028;-71
2022/03/14 07:44:48;;;;;;;7.95;6.70;;;9.40;99.90;;;;;;5033736;28;20129;-71
2022/03/14 07:47:14;;;;;;;8.10;7.30;;;9.40;99.90;;;;;;5067344;28;20134;-71
2022/03/14 07:49:40;;;;;;;8.75;7.75;;;9.40;99.90;;;;;;5068597;28;20048;-76
2022/03/14 07:52:06;;;;;;;8.52;7.72;;;9.40;99.90;;;;;;5042444;28;20131;-70
2022/03/14 07:54:32;;;;;;;8.75;7.95;;;9.40;99.90;;;;;;5049653;28;20040;-73
2022/03/14 07:56:58;;;;;;;9.18;8.10;;;9.40;99.90;;;;;;5049928;28;20051;-72
2022/03/14 07:59:23;;;;;;;8.65;7.75;;;9.40;99.90;;;;;;5069118;28;20040;-72
2022/03/14 08:01:49;;;;;;;9.50;8.10;;;9.40;99.90;;;;;;5071849;28;20039;-72
2022/03/14 08:04:15;;;;;;;9.60;8.55;;;9.40;99.90;;;;;;5053316;28;20044;-72
2022/03/14 08:06:43;;;;;;;11.55;8.73;;;9.40;99.90;;;;;;5056598;28;20045;-71
2022/03/14 08:09:09;;;;;;;10.23;8.65;;;9.40;99.90;;;;;;5056636;28;20040;-71
2022/03/14 08:11:38;;;;;;;10.70;8.50;;;9.40;99.90;;;;;;5060441;28;20054;-71
2022/03/14 08:14:04;;;;;;;10.68;7.78;;;9.40;99.90;;;;;;5062159;28;20306;-68
2022/03/14 08:16:30;;;;;;;11.02;8.70;;;9.50;99.90;;;;;;5053394;28;20059;-71
2022/03/14 08:18:55;;;;;;;12.93;9.52;;;9.40;99.90;;;;;;5054735;28;20048;-69
2022/03/14 08:21:21;;;;;;;13.07;9.07;;;9.40;99.90;;;;;;5057974;28;20176;-70
2022/03/14 08:23:47;;;;;;;11.30;9.32;;;9.50;99.90;;;;;;5075578;28;20141;-72
2022/03/14 08:26:13;;;;;;;12.93;9.43;;;9.50;99.90;;;;;;5052849;28;20059;-71
2022/03/14 08:28:41;;;;;;;11.38;9.15;;;9.40;99.90;;;;;;5058322;28;20040;-70
2022/03/14 08:31:06;;;;;;;13.18;9.57;;;9.40;99.90;;;;;;5041242;28;20067;-71
2022/03/14 08:33:32;;;;;;;10.48;9.32;;;9.40;99.90;;;;;;5056394;28;20547;-71
2022/03/14 08:36:00;;;;;;;11.05;9.77;;;9.50;99.90;;;;;;5052508;28;20473;-71
2022/03/14 08:38:27;;;;;;;11.18;10.00;;;9.40;99.90;;;;;;5032407;28;20036;-71
2022/03/14 08:40:52;;;;;;;13.10;11.05;;;9.40;99.90;;;;;;5050712;28;20120;-71
2022/03/14 08:43:18;;;;;;;12.20;11.00;;;9.40;99.90;;;;;;5054770;28;20124;-71
2022/03/14 08:45:45;;;;;;;11.95;10.70;;;9.40;99.90;;;;;;5071653;28;20040;-71
2022/03/14 08:48:14;;;;;;;12.07;10.88;;;9.40;99.90;;;;;;5052513;28;20053;-71
2022/03/14 08:50:40;;;;;;;13.02;11.23;;;9.50;99.90;;;;;;5052850;28;20069;-71
2022/03/14 08:53:07;;;;;;;13.50;12.10;;;9.40;99.90;;;;;;5053194;28;20038;-71
2022/03/14 08:55:33;;;;;;;13.77;12.40;;;9.40;99.90;;;;;;5056337;28;20028;-71
2022/03/14 08:57:58;;;;;;;18.33;16.40;;;9.30;99.90;;;;;;5054653;28;20554;-71
2022/03/14 09:00:27;;;;;;;18.80;16.73;;;9.30;99.90;;;;;;5062780;28;20409;-71
2022/03/14 09:02:53;;;;;;;22.58;19.27;;;9.20;99.90;;;;;;5052046;28;20036;-71
2022/03/14 09:05:20;;;;;;;22.23;18.92;;;9.20;99.90;;;;;;5033481;28;20071;-71
2022/03/14 09:07:47;;;;;;;21.80;18.85;;;9.20;99.90;;;;;;5052897;28;20051;-71
2022/03/14 09:10:14;;;;;;;21.77;18.35;;;9.20;99.90;;;;;;5055033;28;20048;-71
2022/03/14 09:12:42;;;;;;;22.13;17.67;;;9.10;99.90;;;;;;5053074;28;20055;-71
2022/03/14 09:15:09;;;;;;;24.95;18.10;;;9.10;99.90;;;;;;5072731;28;20036;-71
2022/03/14 09:17:45;;;;;;;24.50;18.55;;;9.10;99.90;;;;;;5054644;28;20064;-70
2022/03/14 09:20:12;;;;;;;20.63;16.45;;;9.10;99.90;;;;;;5056362;28;20123;-70
2022/03/14 09:22:38;;;;;;;17.98;13.90;;;9.00;99.90;;;;;;5053759;28;20032;-71
2022/03/14 09:25:04;;;;;;;22.15;14.40;;;9.00;99.90;;;;;;5039958;28;20044;-70
2022/03/14 09:27:30;;;;;;;21.48;15.07;;;9.00;99.90;;;;;;5058155;28;20127;-70
2022/03/14 09:29:56;;;;;;;20.77;14.45;;;8.90;99.90;;;;;;5057439;28;20063;-70
2022/03/14 09:32:21;;;;;;;19.70;13.82;;;8.90;99.90;;;;;;5054138;28;20037;-69
2022/03/14 09:34:47;;;;;;;23.33;14.82;;;8.90;99.90;;;;;;5036715;28;20029;-71
2022/03/14 09:37:13;;;;;;;25.40;16.33;;;8.90;99.90;;;;;;5049560;28;20127;-70
2022/03/14 09:39:39;;;;;;;24.42;17.50;;;8.80;99.90;;;;;;5051278;28;20404;-70
2022/03/14 09:42:08;;;;;;;29.98;19.27;;;8.90;99.90;;;;;;5071935;28;20039;-71
2022/03/14 09:44:34;;;;;;;25.30;19.33;;;8.90;99.90;;;;;;5053591;28;20051;-71
2022/03/14 09:47:02;;;;;;;28.67;20.45;;;8.80;99.90;;;;;;5047504;28;20052;-71
2022/03/14 09:49:29;;;;;;;33.33;22.58;;;8.80;99.90;;;;;;5053766;28;20509;-69
2022/03/14 09:51:54;;;;;;;33.75;22.58;;;8.80;99.90;;;;;;5054689;28;20049;-71
2022/03/14 09:54:23;;;;;;;34.00;22.00;;;8.80;99.90;;;;;;5052480;28;20378;-72
2022/03/14 09:56:49;;;;;;;32.80;21.70;;;8.90;99.90;;;;;;5071772;28;20065;-71
2022/03/14 09:59:15;;;;;;;36.53;20.88;;;8.90;99.90;;;;;;5054900;28;20113;-70
2022/03/14 10:01:42;;;;;;;36.30;20.20;;;8.90;99.90;;;;;;5047005;28;20114;-71
2022/03/14 10:04:08;;;;;;;31.75;19.23;;;8.90;99.90;;;;;;5055479;28;20043;-70
2022/03/14 10:06:36;;;;;;;31.92;18.70;;;8.90;99.90;;;;;;5026519;28;20036;-70
2022/03/14 10:09:03;;;;;;;31.80;19.63;;;8.90;99.90;;;;;;5051729;28;20052;-72
2022/03/14 10:11:29;;;;;;;31.63;18.08;;;9.00;99.90;;;;;;5038976;28;20047;-70
2022/03/14 10:13:55;;;;;;;24.80;17.15;;;9.00;99.90;;;;;;5054597;28;20054;-70
2022/03/14 10:16:21;;;;;;;29.88;17.52;;;9.10;99.90;;;;;;5071006;28;20052;-71
2022/03/14 10:19:01;;;;;;;28.90;17.02;;;9.00;99.90;;;;;;5049980;28;20043;-71
2022/03/14 10:21:38;;;;;;;26.15;15.63;;;9.10;99.90;;;;;;5072785;28;20035;-71
2022/03/14 10:24:09;;;;;;;26.92;16.25;;;9.10;99.90;;;;;;5056880;28;20045;-71
2022/03/14 10:26:37;;;;;;;27.75;15.75;;;9.20;99.90;;;;;;5054072;28;20093;-71
2022/03/14 10:29:07;;;;;;;27.38;15.27;;;9.20;99.90;;;;;;5039980;28;20105;-71
2022/03/14 10:31:38;;;;;;;28.00;14.57;;;9.20;99.90;;;;;;5052978;28;20047;-71
2022/03/14 10:34:11;;;;;;;25.55;14.75;;;9.30;99.90;;;;;;5052394;28;20041;-71
2022/03/14 10:36:46;;;;;;;26.20;14.63;;;9.30;99.90;;;;;;5056117;28;20127;-70
2022/03/14 10:39:16;;;;;;;20.67;12.57;;;9.30;99.90;;;;;;5035572;28;20125;-71
2022/03/14 10:41:46;;;;;;;20.73;12.23;;;9.40;99.90;;;;;;5037228;28;20047;-71
2022/03/14 10:44:23;;;;;;;21.50;11.73;;;9.50;99.90;;;;;;5065981;28;20135;-71
2022/03/14 10:46:49;;;;;;;21.90;11.73;;;9.40;99.90;;;;;;5054258;28;20035;-71
2022/03/14 10:49:15;;;;;;;23.95;12.10;;;9.50;99.90;;;;;;5054900;28;20139;-71
2022/03/14 10:51:52;;;;;;;18.33;10.60;;;9.60;99.90;;;;;;5039128;28;20072;-71
2022/03/14 10:54:18;;;;;;;21.05;10.25;;;9.60;99.90;;;;;;5066881;28;20033;-71
2022/03/14 10:57:19;;;;;;;19.00;8.05;;;9.60;99.90;;;;;;5054865;28;20043;-71
2022/03/14 10:59:47;;;;;;;14.40;8.27;;;9.70;99.90;;;;;;5051624;28;20055;-71
2022/03/14 11:02:20;;;;;;;19.70;8.63;;;9.80;99.90;;;;;;5026176;28;20044;-70
2022/03/14 11:04:47;;;;;;;18.42;8.95;;;9.80;99.90;;;;;;5039553;28;20080;-70
2022/03/14 11:07:14;;;;;;;17.55;8.77;;;9.90;99.90;;;;;;5053140;28;20032;-71
2022/03/14 11:09:41;;;;;;;16.95;8.57;;;9.90;99.90;;;;;;5049065;28;20128;-71
2022/03/14 11:12:17;;;;;;;18.25;8.55;;;9.90;99.90;;;;;;5071745;28;20097;-70
2022/03/14 11:14:57;;;;;;;20.05;9.18;;;10.00;99.90;;;;;;5051376;28;20559;-71
2022/03/14 11:17:26;;;;;;;21.25;7.97;;;10.10;99.90;;;;;;5053280;28;20123;-71
2022/03/14 11:19:53;;;;;;;15.57;6.68;;;10.10;99.90;;;;;;5052775;28;20048;-71
2022/03/14 11:22:20;;;;;;;12.38;6.05;;;10.10;99.90;;;;;;5052539;28;20653;-71
2022/03/14 11:24:50;;;;;;;14.02;6.32;;;10.10;99.90;;;;;;5049795;28;20036;-71
2022/03/14 11:27:18;;;;;;;13.45;5.68;;;10.10;99.90;;;;;;5051379;28;20041;-71
2022/03/14 11:29:46;;;;;;;15.68;6.95;;;10.20;99.90;;;;;;5046252;28;20036;-71
2022/03/14 11:32:15;;;;;;;16.77;5.55;;;10.20;99.90;;;;;;5052701;28;20056;-71
2022/03/14 11:34:42;;;;;;;19.27;6.78;;;10.30;99.90;;;;;;5053549;28;20047;-71
2022/03/14 11:37:09;;;;;;;18.00;6.38;;;10.30;99.90;;;;;;5070557;28;20075;-71
2022/03/14 11:39:36;;;;;;;15.77;5.95;;;10.40;99.90;;;;;;5052787;28;20048;-71
2022/03/14 11:42:01;;;;;;;15.15;6.10;;;10.40;99.90;;;;;;5068116;28;20297;-71
2022/03/14 11:44:28;;;;;;;18.80;6.65;;;10.50;99.90;;;;;;5056183;28;20040;-71
2022/03/14 11:46:55;;;;;;;15.88;6.40;;;10.50;99.90;;;;;;5056366;28;20043;-71
2022/03/14 11:49:26;;;;;;;14.88;6.30;;;10.60;99.90;;;;;;5056439;28;20056;-71
2022/03/14 11:52:09;;;;;;;17.20;6.72;;;10.60;99.90;;;;;;5056917;28;20115;-71
2022/03/14 11:54:40;;;;;;;12.52;6.72;;;10.60;99.90;;;;;;5055887;28;20040;-71
2022/03/14 11:57:07;;;;;;;17.05;7.88;;;10.60;99.90;;;;;;5055996;28;20036;-71
2022/03/14 11:59:35;;;;;;;18.10;8.95;;;10.60;99.90;;;;;;5052110;28;20090;-71
2022/03/14 12:02:03;;;;;;;16.52;9.85;;;10.60;99.90;;;;;;5057737;28;20036;-71
2022/03/14 12:04:39;;;;;;;14.55;10.10;;;10.70;99.90;;;;;;5055919;28;20039;-71
2022/03/14 12:07:09;;;;;;;16.77;10.13;;;10.70;99.90;;;;;;5056097;28;20037;-71
2022/03/14 12:09:35;;;;;;;18.50;10.77;;;10.70;99.90;;;;;;5074403;28;20040;-71
2022/03/14 12:12:21;;;;;;;19.35;11.02;;;10.70;99.90;;;;;;5055736;28;20124;-71
2022/03/14 12:14:50;;;;;;;19.88;12.05;;;10.80;99.90;;;;;;5053728;28;20047;-71
2022/03/14 12:17:16;;;;;;;20.90;11.82;;;10.80;99.90;;;;;;5054622;28;20040;-70
2022/03/14 12:19:51;;;;;;;23.20;12.38;;;10.90;99.90;;;;;;5073256;28;20151;-71
2022/03/14 12:22:29;;;;;;;20.25;13.13;;;10.90;99.90;;;;;;5047123;28;20047;-71
2022/03/14 12:24:56;;;;;;;19.85;12.65;;;11.00;99.90;;;;;;5053556;28;20028;-71
2022/03/14 12:27:31;;;;;;;22.48;13.05;;;11.10;99.90;;;;;;5074167;28;20143;-71
2022/03/14 12:29:58;;;;;;;18.67;14.13;;;11.10;99.90;;;;;;5050031;28;20094;-71
2022/03/14 12:32:31;;;;;;;17.85;14.00;;;11.20;99.90;;;;;;5062023;28;20043;-71
2022/03/14 12:35:09;;;;;;;19.48;13.68;;;11.20;99.90;;;;;;5052511;28;20590;-71
2022/03/14 12:37:35;;;;;;;19.40;14.18;;;11.30;99.90;;;;;;5049594;28;20039;-71
2022/03/14 12:40:05;;;;;;;22.63;14.02;;;11.40;99.90;;;;;;5073601;28;20036;-71
2022/03/14 12:42:42;;;;;;;18.45;12.98;;;11.50;99.90;;;;;;5055621;28;20036;-71
2022/03/14 12:45:32;;;;;;;22.60;14.48;;;11.60;99.90;;;;;;5048565;28;20029;-71
2022/03/14 12:48:12;;;;;;;24.70;14.05;;;11.70;99.90;;;;;;5048649;28;20051;-71